Time;durP1;ratioP1;P1;durP2;ratioP2;P2;SDS_P1;SDS_P2;PMS_P1;PMS_P2;Temp;Humidity;BMP_temperature;BMP_pressure;BME280_temperature;BME280_humidity;BME280_pressure;Samples;Min_cycle;Max_cycle;Signal;HPM_P1;HPM_P2
2022/09/30 00:01:45;;;;;;;9.85;5.90;;;8.10;99.90;;;;;;4948351;28;210938;-74
2022/09/30 00:04:18;;;;;;;9.20;5.38;;;8.10;99.90;;;;;;4981296;28;20046;-74
2022/09/30 00:06:44;;;;;;;11.13;6.65;;;8.10;99.90;;;;;;4989852;28;205967;-75
2022/09/30 00:09:11;;;;;;;11.20;7.15;;;8.10;99.90;;;;;;5004631;28;20050;-75
2022/09/30 00:11:40;;;;;;;10.50;5.88;;;8.20;99.90;;;;;;4981654;28;206672;-75
2022/09/30 00:14:11;;;;;;;9.88;6.00;;;8.10;99.90;;;;;;5004951;28;20058;-74
2022/09/30 00:16:37;;;;;;;9.63;5.30;;;8.10;99.90;;;;;;4992264;28;211662;-74
2022/09/30 00:19:04;;;;;;;11.77;5.68;;;8.10;99.90;;;;;;5016233;28;20045;-74
2022/09/30 00:21:32;;;;;;;11.55;7.00;;;8.10;99.90;;;;;;4977938;28;152451;-74
2022/09/30 00:24:00;;;;;;;9.15;5.05;;;8.10;99.90;;;;;;5012742;28;20523;-74
2022/09/30 00:26:26;;;;;;;9.88;5.20;;;8.00;99.90;;;;;;4968549;28;141942;-73
2022/09/30 00:28:55;;;;;;;9.90;5.13;;;8.00;99.90;;;;;;5000809;28;20054;-74
2022/09/30 00:31:22;;;;;;;10.00;4.80;;;8.00;99.90;;;;;;4961214;28;203989;-74
2022/09/30 00:34:07;;;;;;;8.63;4.82;;;7.90;99.90;;;;;;5000997;28;20503;-74
2022/09/30 00:36:33;;;;;;;10.40;5.63;;;7.90;99.90;;;;;;4975738;28;208432;-74
2022/09/30 00:38:59;;;;;;;9.27;4.60;;;7.80;99.90;;;;;;4996025;28;20039;-74
2022/09/30 00:41:26;;;;;;;10.20;4.60;;;7.80;99.90;;;;;;4962919;28;207128;-74
2022/09/30 00:43:53;;;;;;;9.90;4.45;;;7.80;99.90;;;;;;4968597;28;20065;-74
2022/09/30 00:46:51;;;;;;;10.10;5.78;;;7.80;99.90;;;;;;4965457;28;149256;-74
2022/09/30 00:49:21;;;;;;;9.02;4.47;;;7.70;99.90;;;;;;4967217;28;20509;-74
2022/09/30 00:51:52;;;;;;;10.30;5.10;;;7.70;99.90;;;;;;4919386;28;207998;-74
2022/09/30 00:54:27;;;;;;;8.73;4.75;;;7.60;99.90;;;;;;4983035;28;20061;-74
2022/09/30 00:56:57;;;;;;;9.30;5.53;;;7.60;99.90;;;;;;4917445;28;208711;-74
2022/09/30 00:59:28;;;;;;;9.80;5.82;;;7.60;99.90;;;;;;4967682;28;20069;-75
2022/09/30 01:01:54;;;;;;;10.45;5.32;;;7.60;99.90;;;;;;4922219;28;208639;-75
2022/09/30 01:04:24;;;;;;;10.27;6.13;;;7.60;99.90;;;;;;4965271;28;20428;-75
2022/09/30 01:06:50;;;;;;;11.25;5.13;;;7.60;99.90;;;;;;4935520;28;213986;-75
2022/09/30 01:09:18;;;;;;;9.02;4.90;;;7.60;99.90;;;;;;4965224;28;20078;-75
2022/09/30 01:11:45;;;;;;;10.38;5.47;;;7.50;99.90;;;;;;4923933;28;147418;-75
2022/09/30 01:14:18;;;;;;;9.68;5.47;;;7.50;99.90;;;;;;4969272;28;20061;-75
2022/09/30 01:17:07;;;;;;;8.82;4.82;;;7.50;99.90;;;;;;4947421;28;199879;-74
2022/09/30 01:20:02;;;;;;;8.65;4.72;;;7.30;99.90;;;;;;4909146;29;20059;-74
2022/09/30 01:22:49;;;;;;;11.02;6.47;;;7.30;99.90;;;;;;4879637;29;208961;-74
2022/09/30 01:25:30;;;;;;;10.50;5.68;;;7.30;99.90;;;;;;4886226;28;208451;-75
2022/09/30 01:28:17;;;;;;;9.60;5.28;;;7.20;99.90;;;;;;4947636;28;20554;-75
2022/09/30 01:30:58;;;;;;;32.92;6.55;;;7.20;99.90;;;;;;4906510;28;204832;-74
2022/09/30 01:33:24;;;;;;;12.38;5.85;;;7.30;99.90;;;;;;4921661;28;20053;-74
2022/09/30 01:35:56;;;;;;;9.25;5.30;;;7.20;99.90;;;;;;4864993;29;211307;-74
2022/09/30 01:39:00;;;;;;;10.15;5.25;;;7.20;99.90;;;;;;4901390;29;20055;-75
2022/09/30 01:41:54;;;;;;;11.88;5.20;;;7.20;99.90;;;;;;4881814;29;205097;-74
2022/09/30 01:44:40;;;;;;;9.90;5.40;;;7.10;99.90;;;;;;4908316;29;20094;-74
2022/09/30 01:47:24;;;;;;;12.52;6.75;;;7.10;99.90;;;;;;4879265;29;206341;-74
2022/09/30 01:49:59;;;;;;;10.15;5.35;;;7.10;99.90;;;;;;4961375;28;20042;-76
2022/09/30 01:52:48;;;;;;;9.52;5.28;;;7.10;99.90;;;;;;4906506;28;206760;-74
2022/09/30 01:55:16;;;;;;;10.68;6.18;;;7.10;99.90;;;;;;4921383;28;204442;-75
2022/09/30 01:57:55;;;;;;;11.50;6.47;;;7.00;99.90;;;;;;4919978;28;205334;-74
2022/09/30 02:00:22;;;;;;;10.57;6.07;;;6.90;99.90;;;;;;4913644;28;172982;-75
2022/09/30 02:02:53;;;;;;;10.05;5.90;;;6.90;99.90;;;;;;4936811;28;20171;-75
2022/09/30 02:05:43;;;;;;;12.07;6.72;;;6.90;99.90;;;;;;4913916;28;207649;-74
2022/09/30 02:08:23;;;;;;;10.50;6.47;;;6.90;99.90;;;;;;4969201;28;20057;-74
2022/09/30 02:11:00;;;;;;;11.13;6.68;;;6.90;99.90;;;;;;4916723;28;207795;-74
2022/09/30 02:13:42;;;;;;;10.98;6.57;;;6.90;99.90;;;;;;4953918;28;20051;-74
2022/09/30 02:16:11;;;;;;;10.88;6.13;;;6.80;99.90;;;;;;4906319;28;204452;-74
2022/09/30 02:18:58;;;;;;;12.52;5.63;;;6.80;99.90;;;;;;4998965;28;20050;-74
2022/09/30 02:21:32;;;;;;;10.52;5.30;;;6.80;99.90;;;;;;4974516;28;204535;-74
2022/09/30 02:24:04;;;;;;;11.95;6.30;;;6.70;99.90;;;;;;5001675;28;20054;-74
2022/09/30 02:26:36;;;;;;;14.68;6.22;;;6.70;99.90;;;;;;4950342;28;159423;-74
2022/09/30 02:29:31;;;;;;;14.20;6.38;;;6.60;99.90;;;;;;4987248;28;20054;-74
2022/09/30 02:32:13;;;;;;;14.70;6.55;;;6.70;99.90;;;;;;4972090;28;225441;-74
2022/09/30 02:34:47;;;;;;;12.27;7.13;;;6.60;99.90;;;;;;5002143;28;20068;-73
2022/09/30 02:37:35;;;;;;;16.33;6.50;;;6.60;99.90;;;;;;4965716;28;199696;-74
2022/09/30 02:40:04;;;;;;;14.63;6.15;;;6.60;99.90;;;;;;5018948;28;20427;-74
2022/09/30 02:42:31;;;;;;;12.75;6.10;;;6.50;99.90;;;;;;4955587;28;206611;-74
2022/09/30 02:45:10;;;;;;;10.43;5.68;;;6.50;99.90;;;;;;5004937;28;20050;-73
2022/09/30 02:47:39;;;;;;;10.25;6.18;;;6.50;99.90;;;;;;4966958;28;198378;-74
2022/09/30 02:50:17;;;;;;;11.98;6.13;;;6.40;99.90;;;;;;5001352;28;20061;-74
2022/09/30 02:53:09;;;;;;;12.07;6.50;;;6.50;99.90;;;;;;4960886;28;209983;-74
2022/09/30 02:56:01;;;;;;;12.18;6.13;;;6.40;99.90;;;;;;4978440;28;206677;-74
2022/09/30 02:58:29;;;;;;;11.52;6.00;;;6.40;99.90;;;;;;5027237;28;20048;-74
2022/09/30 03:00:56;;;;;;;9.88;5.30;;;6.40;99.90;;;;;;4966616;28;210010;-74
2022/09/30 03:03:25;;;;;;;10.90;6.68;;;6.30;99.90;;;;;;5018132;28;20053;-74
2022/09/30 03:05:52;;;;;;;12.15;6.18;;;6.40;99.90;;;;;;4963415;28;205710;-74
2022/09/30 03:08:18;;;;;;;14.88;7.55;;;6.40;99.90;;;;;;5010966;28;20054;-74
2022/09/30 03:10:49;;;;;;;20.58;7.70;;;6.40;99.90;;;;;;4973213;28;207475;-74
2022/09/30 03:13:34;;;;;;;;;;;6.40;99.90;;;;;;5019474;28;20061;-74
2022/09/30 03:16:00;;;;;;;59.42;7.70;;;6.40;99.90;;;;;;4962093;28;196739;-74
2022/09/30 03:18:54;;;;;;;25.00;5.18;;;6.40;99.90;;;;;;5009421;28;20055;-74
2022/09/30 03:21:49;;;;;;;68.78;6.50;;;6.40;99.90;;;;;;4968931;28;208412;-74
2022/09/30 03:24:44;;;;;;;124.10;7.30;;;6.40;99.90;;;;;;5031508;28;20058;-74
2022/09/30 03:27:45;;;;;;;76.43;7.35;;;6.30;99.90;;;;;;4961095;28;206277;-75
2022/09/30 03:30:27;;;;;;;49.63;6.00;;;6.30;99.90;;;;;;5005727;28;213175;-75
2022/09/30 03:33:15;;;;;;;57.25;5.85;;;6.30;99.90;;;;;;4986535;28;105773;-74
2022/09/30 03:35:45;;;;;;;64.38;5.85;;;6.30;99.90;;;;;;4987728;28;206861;-74
2022/09/30 03:38:22;;;;;;;25.63;5.28;;;6.30;99.90;;;;;;5017348;28;20086;-75
2022/09/30 03:40:59;;;;;;;15.55;5.53;;;6.30;99.90;;;;;;4969062;28;158033;-75
2022/09/30 03:43:28;;;;;;;10.27;4.82;;;6.30;99.90;;;;;;5010408;28;20061;-74
2022/09/30 03:46:09;;;;;;;8.20;4.20;;;6.20;99.90;;;;;;4971481;28;207520;-75
2022/09/30 03:48:37;;;;;;;9.18;4.38;;;6.20;99.90;;;;;;5003365;28;20058;-75
2022/09/30 03:51:05;;;;;;;10.70;5.80;;;6.20;99.90;;;;;;4968008;28;208467;-75
2022/09/30 03:53:41;;;;;;;10.07;5.50;;;6.10;99.90;;;;;;5010317;28;20069;-75
2022/09/30 03:56:07;;;;;;;8.90;4.70;;;6.10;99.90;;;;;;4965415;28;206654;-75
2022/09/30 03:58:38;;;;;;;8.90;4.95;;;6.00;99.90;;;;;;5006418;28;20537;-76
2022/09/30 04:01:04;;;;;;;11.70;5.93;;;6.00;99.90;;;;;;4963181;28;204283;-74
2022/09/30 04:03:30;;;;;;;9.98;5.43;;;6.00;99.90;;;;;;4992054;28;20078;-74
2022/09/30 04:05:56;;;;;;;22.67;9.40;;;6.00;99.90;;;;;;4959709;28;137918;-74
2022/09/30 04:08:22;;;;;;;17.65;7.03;;;6.00;99.90;;;;;;4991976;28;20056;-74
2022/09/30 04:10:49;;;;;;;15.88;6.90;;;6.00;99.90;;;;;;4972440;28;204089;-75
2022/09/30 04:13:15;;;;;;;10.95;5.82;;;6.00;99.90;;;;;;5003874;28;20050;-75
2022/09/30 04:15:41;;;;;;;14.48;6.57;;;6.00;99.90;;;;;;4960733;28;212872;-76
2022/09/30 04:18:07;;;;;;;47.28;8.88;;;5.90;99.90;;;;;;5008592;28;20050;-74
2022/09/30 04:20:33;;;;;;;45.77;9.13;;;6.00;99.90;;;;;;4955800;28;212327;-74
2022/09/30 04:23:00;;;;;;;50.53;7.85;;;6.00;99.90;;;;;;5031683;28;20046;-74
2022/09/30 04:25:27;;;;;;;66.33;8.93;;;6.00;99.90;;;;;;4964495;28;209429;-74
2022/09/30 04:27:54;;;;;;;58.58;9.20;;;6.00;99.90;;;;;;5019463;28;20033;-74
2022/09/30 04:30:20;;;;;;;18.33;7.37;;;6.00;99.90;;;;;;4955751;28;215398;-74
2022/09/30 04:32:46;;;;;;;23.08;7.75;;;5.90;99.90;;;;;;5011464;28;20054;-74
2022/09/30 04:35:13;;;;;;;52.88;9.02;;;5.90;99.90;;;;;;4964288;28;212506;-75
2022/09/30 04:37:46;;;;;;;67.63;10.25;;;5.90;99.90;;;;;;4984561;28;209342;-75
2022/09/30 04:40:14;;;;;;;25.35;8.30;;;5.90;99.90;;;;;;4986007;28;211943;-74
2022/09/30 04:42:41;;;;;;;40.05;9.23;;;5.90;99.90;;;;;;4974538;28;205585;-75
2022/09/30 04:45:09;;;;;;;81.70;11.93;;;5.90;99.90;;;;;;5007712;28;20046;-75
2022/09/30 04:47:36;;;;;;;38.55;9.02;;;5.90;99.90;;;;;;4961367;28;209164;-75
2022/09/30 04:50:02;;;;;;;72.55;9.85;;;5.80;99.90;;;;;;5024032;28;20510;-76
2022/09/30 04:52:28;;;;;;;67.25;9.52;;;5.80;99.90;;;;;;4994501;28;209435;-75
2022/09/30 04:54:54;;;;;;;94.57;12.15;;;5.80;99.90;;;;;;5003777;28;20054;-75
2022/09/30 04:57:20;;;;;;;68.18;12.02;;;5.70;99.90;;;;;;4998029;28;192980;-75
2022/09/30 04:59:47;;;;;;;38.10;11.40;;;5.70;99.90;;;;;;5005972;28;20054;-75
2022/09/30 05:02:13;;;;;;;21.20;9.27;;;5.60;99.90;;;;;;4968858;28;207486;-75
2022/09/30 05:04:39;;;;;;;27.13;10.63;;;5.60;99.90;;;;;;4999661;28;20419;-76
2022/09/30 05:07:07;;;;;;;49.25;10.70;;;5.60;99.90;;;;;;4978856;28;207039;-75
2022/09/30 05:09:34;;;;;;;51.97;9.90;;;5.60;99.90;;;;;;5006620;28;20058;-76
2022/09/30 05:12:02;;;;;;;104.88;10.95;;;5.60;99.90;;;;;;4970497;28;208798;-74
2022/09/30 05:14:28;;;;;;;28.73;7.65;;;5.60;99.90;;;;;;5005730;28;20072;-75
2022/09/30 05:16:55;;;;;;;33.25;10.38;;;5.50;99.90;;;;;;4957274;28;201612;-74
2022/09/30 05:19:21;;;;;;;29.95;9.40;;;5.50;99.90;;;;;;4989710;28;20050;-75
2022/09/30 05:21:47;;;;;;;30.45;11.70;;;5.50;99.90;;;;;;4991066;28;148195;-76
2022/09/30 05:24:13;;;;;;;20.40;10.50;;;5.40;99.90;;;;;;5005498;28;20554;-75
2022/09/30 05:26:39;;;;;;;15.02;8.05;;;5.40;99.90;;;;;;4963081;28;205759;-75
2022/09/30 05:29:07;;;;;;;13.90;7.53;;;5.40;99.90;;;;;;5007108;28;20057;-76
2022/09/30 05:31:34;;;;;;;17.90;9.20;;;5.30;99.90;;;;;;4981079;28;207342;-76
2022/09/30 05:34:00;;;;;;;14.05;8.32;;;5.30;99.90;;;;;;4991575;28;20053;-75
2022/09/30 05:36:26;;;;;;;14.45;7.85;;;5.20;99.90;;;;;;4968111;28;207587;-75
2022/09/30 05:38:53;;;;;;;13.95;8.48;;;5.30;99.90;;;;;;5000927;28;20050;-76
2022/09/30 05:41:19;;;;;;;14.43;7.78;;;5.20;99.90;;;;;;4961300;28;205707;-75
2022/09/30 05:43:49;;;;;;;12.10;7.63;;;5.20;99.90;;;;;;5004391;28;20053;-76
2022/09/30 05:46:17;;;;;;;14.10;7.90;;;5.30;99.90;;;;;;4970076;28;180335;-76
2022/09/30 05:48:43;;;;;;;13.25;7.60;;;5.30;99.90;;;;;;5011529;28;20057;-76
2022/09/30 05:51:10;;;;;;;12.32;7.38;;;5.30;99.90;;;;;;4983219;28;207254;-76
2022/09/30 05:53:37;;;;;;;19.98;8.23;;;5.30;99.90;;;;;;4984561;28;20065;-76
2022/09/30 05:56:05;;;;;;;15.25;7.68;;;5.40;99.90;;;;;;4974241;28;205544;-76
2022/09/30 05:58:31;;;;;;;14.18;7.80;;;5.30;99.90;;;;;;5000038;28;20057;-76
2022/09/30 06:01:07;;;;;;;14.30;7.43;;;5.40;99.90;;;;;;4962980;28;203418;-77
2022/09/30 06:03:34;;;;;;;24.25;9.40;;;5.40;99.90;;;;;;5026750;28;20064;-71
2022/09/30 06:06:00;;;;;;;14.50;9.30;;;5.40;99.90;;;;;;4968662;28;211099;-71
2022/09/30 06:08:26;;;;;;;24.60;9.38;;;5.50;99.90;;;;;;5014863;28;20054;-67
2022/09/30 06:10:52;;;;;;;23.75;9.65;;;5.50;99.90;;;;;;4985586;28;178564;-73
2022/09/30 06:13:20;;;;;;;32.20;10.65;;;5.60;99.90;;;;;;5020305;28;20046;-73
2022/09/30 06:15:59;;;;;;;46.42;12.95;;;5.60;99.90;;;;;;4979884;28;209043;-73
2022/09/30 06:18:30;;;;;;;113.97;14.30;;;5.70;99.90;;;;;;5014509;28;20050;-73
2022/09/30 06:21:01;;;;;;;161.43;15.32;;;5.80;99.90;;;;;;4969859;28;206344;-74
2022/09/30 06:23:28;;;;;;;165.50;16.27;;;5.80;99.90;;;;;;5009712;28;20053;-73
2022/09/30 06:25:55;;;;;;;101.00;15.00;;;5.90;99.90;;;;;;4966525;28;205825;-73
2022/09/30 06:28:22;;;;;;;103.45;15.43;;;6.00;99.90;;;;;;4999479;28;22278;-73
2022/09/30 06:30:48;;;;;;;93.57;14.75;;;6.10;99.90;;;;;;4969995;28;209670;-73
2022/09/30 06:33:14;;;;;;;70.72;15.13;;;6.10;99.90;;;;;;5034931;28;20053;-73
2022/09/30 06:35:42;;;;;;;68.63;14.27;;;6.20;99.90;;;;;;4988204;28;203860;-74
2022/09/30 06:38:09;;;;;;;52.58;15.57;;;6.20;99.90;;;;;;5016187;28;20054;-73
2022/09/30 06:40:36;;;;;;;46.50;14.63;;;6.20;99.90;;;;;;4962828;28;207697;-73
2022/09/30 06:43:03;;;;;;;31.85;14.60;;;6.30;99.90;;;;;;5020961;28;20058;-74
2022/09/30 06:45:31;;;;;;;20.13;12.57;;;6.30;99.90;;;;;;4961521;28;212635;-74
2022/09/30 06:47:59;;;;;;;19.63;13.20;;;6.30;99.90;;;;;;5008137;28;20427;-74
2022/09/30 06:50:25;;;;;;;22.83;15.60;;;6.30;99.90;;;;;;4959781;28;209495;-72
2022/09/30 06:52:56;;;;;;;20.42;14.20;;;6.40;99.90;;;;;;4982171;28;20551;-73
2022/09/30 06:55:23;;;;;;;22.25;14.50;;;6.40;99.90;;;;;;4976792;28;212328;-73
2022/09/30 06:57:49;;;;;;;20.83;14.15;;;6.50;99.90;;;;;;5017498;28;20427;-73
2022/09/30 07:00:15;;;;;;;20.77;14.33;;;6.50;99.90;;;;;;4962491;28;209761;-73
2022/09/30 07:02:42;;;;;;;21.67;14.98;;;6.60;99.90;;;;;;5012541;28;20423;-73
2022/09/30 07:05:09;;;;;;;20.00;14.02;;;6.60;99.90;;;;;;5013715;28;20042;-73
2022/09/30 07:07:35;;;;;;;22.23;15.63;;;6.70;99.90;;;;;;4964175;28;204622;-73
2022/09/30 07:10:03;;;;;;;21.80;16.63;;;6.80;99.90;;;;;;5004063;28;20049;-73
2022/09/30 07:12:29;;;;;;;20.15;14.88;;;6.80;99.90;;;;;;4971006;28;207597;-73
2022/09/30 07:14:55;;;;;;;19.70;15.25;;;6.90;99.90;;;;;;5003822;28;20053;-73
2022/09/30 07:17:22;;;;;;;22.70;15.90;;;7.00;99.90;;;;;;4975913;28;210379;-75
2022/09/30 07:19:50;;;;;;;24.25;18.55;;;7.00;99.90;;;;;;5005096;28;20053;-73
2022/09/30 07:22:28;;;;;;;23.08;16.38;;;7.20;99.90;;;;;;4942006;28;211629;-73
2022/09/30 07:24:56;;;;;;;26.67;18.08;;;7.30;99.90;;;;;;5021851;28;20708;-73
2022/09/30 07:27:24;;;;;;;22.65;17.63;;;7.40;99.90;;;;;;4972295;28;187807;-73
2022/09/30 07:29:51;;;;;;;26.73;18.10;;;7.50;99.90;;;;;;4995102;28;20045;-72
2022/09/30 07:32:18;;;;;;;25.15;16.77;;;7.70;99.90;;;;;;4971296;28;214652;-74
2022/09/30 07:34:45;;;;;;;26.08;17.40;;;7.80;99.90;;;;;;5004658;28;20058;-72
2022/09/30 07:37:13;;;;;;;29.92;16.92;;;7.90;99.90;;;;;;4969762;28;212466;-73
2022/09/30 07:39:41;;;;;;;62.30;16.08;;;8.10;99.90;;;;;;5012489;28;20057;-73
2022/09/30 07:42:07;;;;;;;60.03;16.33;;;8.10;99.90;;;;;;4988451;28;206508;-72
2022/09/30 07:44:35;;;;;;;62.40;16.17;;;8.20;99.90;;;;;;5003088;28;20057;-73
2022/09/30 07:47:02;;;;;;;38.90;15.25;;;8.30;99.90;;;;;;4981091;28;213692;-73
2022/09/30 07:49:28;;;;;;;46.60;16.05;;;8.40;99.90;;;;;;5006335;28;20046;-73
2022/09/30 07:51:57;;;;;;;43.90;15.68;;;8.60;99.90;;;;;;4980866;28;180937;-73
2022/09/30 07:54:27;;;;;;;53.22;14.77;;;8.70;99.90;;;;;;5003980;28;20045;-73
2022/09/30 07:56:53;;;;;;;59.83;13.77;;;8.80;99.90;;;;;;4957006;28;205832;-72
2022/09/30 07:59:20;;;;;;;46.17;13.50;;;8.90;99.90;;;;;;5002003;28;20056;-73
2022/09/30 08:01:47;;;;;;;68.18;13.20;;;9.00;99.90;;;;;;4983216;28;205526;-72
2022/09/30 08:04:14;;;;;;;60.63;13.85;;;9.10;99.90;;;;;;5012784;28;20045;-73
2022/09/30 08:06:45;;;;;;;85.70;12.93;;;9.20;99.90;;;;;;4961913;28;205994;-73
2022/09/30 08:09:14;;;;;;;44.35;13.43;;;9.40;99.90;;;;;;5014447;28;20054;-73
2022/09/30 08:11:41;;;;;;;103.15;14.02;;;9.50;99.90;;;;;;4975362;28;205996;-73
2022/09/30 08:14:13;;;;;;;46.25;12.43;;;9.60;99.90;;;;;;5017236;28;20054;-74
2022/09/30 08:16:39;;;;;;;70.25;12.35;;;9.80;99.90;;;;;;4986941;28;209227;-73
2022/09/30 08:19:05;;;;;;;88.45;13.48;;;9.90;99.90;;;;;;5014186;28;20050;-73
2022/09/30 08:21:31;;;;;;;86.93;11.95;;;9.90;99.90;;;;;;4980951;28;210027;-73
2022/09/30 08:23:57;;;;;;;105.03;12.48;;;10.10;99.90;;;;;;5015658;28;20054;-73
2022/09/30 08:26:24;;;;;;;26.02;10.52;;;10.20;99.90;;;;;;4977036;28;208942;-73
2022/09/30 08:28:50;;;;;;;56.47;11.45;;;10.40;99.90;;;;;;5016205;28;20064;-73
2022/09/30 08:31:21;;;;;;;35.55;11.52;;;10.40;99.90;;;;;;4968620;28;202230;-72
2022/09/30 08:33:47;;;;;;;40.63;11.27;;;10.60;99.90;;;;;;5012099;28;20046;-72
2022/09/30 08:36:16;;;;;;;40.00;12.48;;;10.70;99.90;;;;;;4979855;28;209381;-72
2022/09/30 08:38:42;;;;;;;31.55;10.10;;;10.90;99.90;;;;;;5017273;28;20082;-72
2022/09/30 08:41:26;;;;;;;36.33;9.18;;;11.00;99.90;;;;;;4974835;28;209145;-72
2022/09/30 08:44:18;;;;;;;26.80;9.93;;;11.10;99.90;;;;;;4995082;28;20054;-71
2022/09/30 08:46:52;;;;;;;;;;;11.10;99.90;;;;;;4971597;28;206054;-72
2022/09/30 08:49:52;;;;;;;17.02;9.27;;;11.20;99.90;;;;;;5035264;28;19932;-72
2022/09/30 08:52:31;;;;;;;21.27;9.20;;;11.20;99.90;;;;;;4996286;28;213439;-72
2022/09/30 08:54:57;;;;;;;18.10;9.70;;;11.30;99.90;;;;;;5021932;28;20308;-72
2022/09/30 08:57:27;;;;;;;15.65;10.23;;;11.50;99.90;;;;;;4981236;28;157094;-72
2022/09/30 08:59:56;;;;;;;14.32;9.48;;;11.60;99.90;;;;;;5003938;28;20054;-71
2022/09/30 09:02:53;;;;;;;18.48;10.80;;;11.80;99.90;;;;;;4974835;28;206001;-72
2022/09/30 09:05:45;;;;;;;17.83;11.52;;;11.90;99.90;;;;;;4959366;28;213497;-72
2022/09/30 09:08:23;;;;;;;15.85;11.23;;;12.20;99.90;;;;;;5003467;28;20053;-72
2022/09/30 09:11:15;;;;;;;14.82;10.68;;;12.40;99.90;;;;;;4968996;28;209030;-70
2022/09/30 09:13:50;;;;;;;15.40;10.77;;;12.50;99.90;;;;;;5006181;28;20092;-72
2022/09/30 09:16:28;;;;;;;16.75;10.65;;;12.70;99.90;;;;;;4975646;28;205832;-72
2022/09/30 09:19:09;;;;;;;16.95;11.02;;;13.30;99.90;;;;;;5021166;28;20053;-71
2022/09/30 09:21:52;;;;;;;14.48;9.68;;;14.30;99.90;;;;;;4975234;28;205860;-72
2022/09/30 09:24:21;;;;;;;15.90;9.80;;;14.80;99.90;;;;;;5005743;28;20060;-72
2022/09/30 09:26:49;;;;;;;16.63;9.90;;;15.00;99.90;;;;;;4985063;28;220182;-72
2022/09/30 09:29:37;;;;;;;15.57;9.82;;;15.80;99.90;;;;;;5004324;28;20077;-71
2022/09/30 09:32:13;;;;;;;14.05;8.80;;;16.50;99.90;;;;;;4987877;28;218845;-72
2022/09/30 09:34:42;;;;;;;12.32;8.27;;;17.10;99.90;;;;;;5012628;28;20057;-71
2022/09/30 09:37:08;;;;;;;13.27;8.32;;;17.70;99.90;;;;;;4967188;28;220228;-70
2022/09/30 09:39:56;;;;;;;13.70;7.07;;;18.00;99.90;;;;;;5006161;28;20050;-72
2022/09/30 09:42:56;;;;;;;10.25;5.50;;;18.10;99.90;;;;;;4999664;28;206071;-72
2022/09/30 09:45:30;;;;;;;11.75;4.90;;;18.10;99.90;;;;;;4954831;28;209789;-71
2022/09/30 09:47:56;;;;;;;8.50;3.90;;;18.20;99.90;;;;;;5036518;28;20058;-71
2022/09/30 09:50:55;;;;;;;8.77;3.95;;;18.50;99.90;;;;;;4963037;28;210125;-72
2022/09/30 09:53:41;;;;;;;11.23;4.78;;;18.80;99.90;;;;;;5003339;28;20065;-71
2022/09/30 09:56:17;;;;;;;8.00;3.88;;;18.80;99.90;;;;;;4985197;28;205924;-71
2022/09/30 09:59:22;;;;;;;8.30;3.70;;;19.00;99.90;;;;;;5012879;28;20396;-72
2022/09/30 10:01:51;;;;;;;8.00;3.55;;;19.20;99.90;;;;;;4965680;28;205506;-71
2022/09/30 10:04:24;;;;;;;7.30;3.22;;;18.90;99.90;;;;;;5011913;28;20056;-71
2022/09/30 10:07:10;;;;;;;9.18;3.15;;;19.30;99.90;;;;;;4967388;28;206586;-70
2022/09/30 10:09:41;;;;;;;7.63;3.10;;;19.60;99.90;;;;;;5005248;28;20442;-72
2022/09/30 10:12:12;;;;;;;8.65;3.15;;;19.50;99.90;;;;;;4978420;28;206286;-72
2022/09/30 10:15:00;;;;;;;7.40;3.00;;;19.90;99.90;;;;;;4996818;28;20054;-72
2022/09/30 10:17:29;;;;;;;7.90;3.00;;;20.40;99.90;;;;;;4931642;28;206170;-72
2022/09/30 10:20:06;;;;;;;7.57;2.80;;;20.80;99.90;;;;;;4985767;28;20042;-72
2022/09/30 10:22:34;;;;;;;7.25;2.67;;;20.80;99.80;;;;;;4919253;28;204897;-72
2022/09/30 10:25:09;;;;;;;8.15;2.40;;;20.70;99.40;;;;;;4967886;28;20046;-72
2022/09/30 10:27:35;;;;;;;7.50;2.58;;;21.00;99.40;;;;;;4945611;28;205981;-71
2022/09/30 10:30:02;;;;;;;7.45;2.40;;;21.30;98.30;;;;;;4984604;28;20404;-70
2022/09/30 10:32:28;;;;;;;7.00;2.40;;;21.80;99.10;;;;;;4939716;28;206424;-71
2022/09/30 10:35:15;;;;;;;6.75;2.30;;;21.60;95.80;;;;;;4964694;28;20057;-72
2022/09/30 10:37:51;;;;;;;7.65;2.50;;;21.50;97.40;;;;;;4907979;28;206129;-72
2022/09/30 10:40:18;;;;;;;8.07;2.47;;;22.10;96.50;;;;;;4919798;28;208528;-72
2022/09/30 10:42:47;;;;;;;6.78;2.58;;;22.20;96.60;;;;;;4968183;28;20058;-71
2022/09/30 10:45:23;;;;;;;7.05;2.50;;;21.90;95.50;;;;;;4960732;28;209903;-72
2022/09/30 10:47:52;;;;;;;8.57;2.88;;;22.10;95.30;;;;;;4951809;28;208237;-71
2022/09/30 10:50:25;;;;;;;7.75;3.05;;;21.80;95.90;;;;;;4938635;28;215378;-72
2022/09/30 10:52:58;;;;;;;7.53;2.70;;;21.30;94.70;;;;;;4950313;28;20435;-72
2022/09/30 10:55:24;;;;;;;7.40;2.88;;;20.70;96.00;;;;;;4944586;28;209761;-72
2022/09/30 10:57:52;;;;;;;7.57;2.65;;;20.80;94.80;;;;;;5016874;28;20046;-71
2022/09/30 11:00:21;;;;;;;8.27;3.07;;;20.70;95.30;;;;;;4952756;28;208219;-70
2022/09/30 11:03:09;;;;;;;8.57;3.22;;;20.80;95.50;;;;;;4984100;28;20527;-71
2022/09/30 11:05:41;;;;;;;8.10;2.90;;;21.20;95.50;;;;;;4953196;28;209638;-70
2022/09/30 11:08:48;;;;;;;8.07;3.10;;;21.70;94.60;;;;;;5003483;28;20545;-71
2022/09/30 11:11:23;;;;;;;8.63;3.42;;;21.40;92.90;;;;;;4932408;28;192529;-72
2022/09/30 11:14:13;;;;;;;7.40;3.00;;;20.90;93.70;;;;;;4986239;28;20077;-71
2022/09/30 11:17:08;;;;;;;7.60;3.40;;;21.10;94.10;;;;;;4922245;28;206304;-71
2022/09/30 11:19:53;;;;;;;7.88;2.90;;;21.20;94.00;;;;;;4977552;28;20121;-72
2022/09/30 11:22:27;;;;;;;7.93;2.80;;;21.90;93.80;;;;;;4933988;28;206393;-72
2022/09/30 11:24:56;;;;;;;6.88;2.58;;;22.20;94.10;;;;;;4980105;28;20077;-72
2022/09/30 11:27:35;;;;;;;8.43;2.83;;;22.60;94.00;;;;;;4950567;28;207322;-72
2022/09/30 11:30:30;;;;;;;7.25;2.58;;;22.60;93.40;;;;;;4967400;28;20073;-72
2022/09/30 11:33:13;;;;;;;8.25;2.70;;;23.00;92.10;;;;;;4940911;28;205982;-72
2022/09/30 11:36:10;;;;;;;6.85;2.40;;;23.00;92.20;;;;;;4931237;28;207945;-71
2022/09/30 11:39:00;;;;;;;7.45;2.30;;;23.20;91.10;;;;;;4970940;28;20627;-72
2022/09/30 11:41:37;;;;;;;6.95;2.50;;;22.90;90.80;;;;;;4951354;28;206808;-71
2022/09/30 11:44:36;;;;;;;6.50;1.92;;;22.70;92.40;;;;;;5005208;28;20069;-71
2022/09/30 11:47:23;;;;;;;6.20;1.88;;;22.90;90.00;;;;;;4938194;28;205397;-72
2022/09/30 11:50:01;;;;;;;5.93;1.77;;;22.20;91.30;;;;;;5022586;28;20427;-71
2022/09/30 11:52:54;;;;;;;5.80;1.67;;;22.50;91.20;;;;;;4981493;28;218106;-72
2022/09/30 11:55:37;;;;;;;5.07;1.58;;;22.80;90.70;;;;;;4962185;28;207068;-71
2022/09/30 11:58:20;;;;;;;6.30;1.67;;;22.30;90.60;;;;;;5008677;28;20053;-72
2022/09/30 12:00:51;;;;;;;6.28;1.70;;;21.80;90.70;;;;;;4971063;28;211402;-72
2022/09/30 12:03:24;;;;;;;5.53;1.70;;;21.40;90.90;;;;;;4978263;28;20050;-71
2022/09/30 12:06:01;;;;;;;5.75;1.50;;;22.10;91.60;;;;;;4957063;28;210303;-71
2022/09/30 12:08:43;;;;;;;4.60;1.30;;;21.40;90.90;;;;;;4991318;28;20069;-72
2022/09/30 12:11:15;;;;;;;5.70;1.35;;;20.70;90.90;;;;;;4970825;28;210763;-72
2022/09/30 12:13:56;;;;;;;5.40;1.40;;;19.90;91.50;;;;;;5019637;28;20053;-72
2022/09/30 12:16:30;;;;;;;6.13;1.45;;;19.30;92.20;;;;;;4976694;28;204756;-73
2022/09/30 12:19:03;;;;;;;5.82;1.50;;;19.00;93.00;;;;;;5001198;28;20045;-72
2022/09/30 12:21:34;;;;;;;5.70;1.60;;;19.60;93.00;;;;;;4985773;28;162350;-72
2022/09/30 12:24:30;;;;;;;4.95;1.55;;;19.50;93.00;;;;;;5003455;28;20057;-72
2022/09/30 12:26:58;;;;;;;5.57;1.40;;;20.60;92.40;;;;;;4992635;28;206119;-72
2022/09/30 12:32:36;;;;;;;5.55;1.80;;;21.10;91.60;;;;;;4961664;28;204933;-71
2022/09/30 12:35:16;;;;;;;6.90;1.90;;;20.30;92.20;;;;;;5017616;28;20506;-72
2022/09/30 12:38:18;;;;;;;6.18;1.83;;;20.70;92.10;;;;;;4971591;28;153904;-72
2022/09/30 12:41:24;;;;;;;7.78;2.15;;;20.20;91.20;;;;;;4974927;28;215403;-72
2022/09/30 12:44:15;;;;;;;6.97;2.17;;;19.90;92.40;;;;;;4995318;28;20066;-72
2022/09/30 12:47:01;;;;;;;7.72;2.60;;;20.00;93.20;;;;;;4962313;28;209530;-71
2022/09/30 12:49:29;;;;;;;8.13;3.05;;;20.50;92.70;;;;;;5003208;28;20232;-72
2022/09/30 12:51:58;;;;;;;8.95;3.17;;;20.50;92.00;;;;;;4992396;28;212797;-72
2022/09/30 12:54:50;;;;;;;7.85;3.25;;;19.70;92.40;;;;;;5011099;28;20511;-74
2022/09/30 12:57:24;;;;;;;7.60;3.63;;;19.40;93.00;;;;;;4989959;28;212750;-73
2022/09/30 12:59:54;;;;;;;8.10;3.70;;;19.00;93.50;;;;;;5021170;28;20058;-73
2022/09/30 13:02:30;;;;;;;8.85;3.90;;;18.70;93.60;;;;;;4989651;28;212413;-73
2022/09/30 13:05:25;;;;;;;9.05;3.80;;;18.30;94.10;;;;;;5009235;28;20049;-73
2022/09/30 13:08:03;;;;;;;8.80;4.03;;;18.40;94.70;;;;;;4980032;28;209752;-72
2022/09/30 13:10:37;;;;;;;9.60;3.85;;;18.50;94.40;;;;;;4960030;28;214582;-74
2022/09/30 13:13:09;;;;;;;8.45;3.67;;;18.20;94.60;;;;;;5007068;28;20169;-73
2022/09/30 13:15:38;;;;;;;9.45;4.00;;;18.20;95.10;;;;;;4971493;28;210461;-75